createdAt,value
2018-06-15T04:09:58.424Z,16.36
2018-06-15T04:10:23.918Z,16.33
2018-06-15T04:10:49.471Z,16.36
2018-06-15T04:11:14.914Z,16.33
2018-06-15T04:11:40.415Z,16.38
2018-06-15T04:12:05.910Z,16.36
2018-06-15T04:12:31.388Z,16.41
2018-06-15T04:12:56.949Z,16.33
2018-06-15T04:13:22.378Z,16.32
2018-06-15T04:13:47.886Z,16.33
2018-06-15T04:14:13.375Z,16.29
2018-06-15T04:14:38.854Z,16.33
2018-06-15T04:15:04.367Z,16.36
2018-06-15T04:15:29.842Z,16.33
2018-06-15T04:15:55.324Z,16.31
2018-06-15T04:16:20.825Z,16.42
2018-06-15T04:16:46.319Z,16.41
2018-06-15T04:17:11.816Z,16.41
2018-06-15T04:17:37.301Z,16.39
2018-06-15T04:18:02.785Z,16.32
2018-06-15T04:18:28.252Z,16.43
2018-06-15T04:19:36.970Z,16.39
2018-06-15T04:20:02.452Z,16.35
2018-06-15T04:20:27.944Z,16.33
2018-06-15T04:20:53.461Z,16.38
2018-06-15T04:21:18.949Z,16.42
2018-06-15T04:21:44.456Z,16.41
2018-06-15T04:22:09.930Z,16.41
2018-06-15T04:22:35.413Z,16.5
2018-06-15T04:23:00.903Z,16.42
2018-06-15T04:23:26.371Z,16.5
2018-06-15T04:23:51.852Z,16.5
2018-06-15T04:24:17.339Z,16.46
2018-06-15T04:24:42.821Z,16.46
2018-06-15T04:25:08.315Z,16.5
2018-06-15T04:25:33.880Z,16.47
2018-06-15T04:25:59.440Z,16.5
2018-06-15T04:26:24.929Z,16.5
2018-06-15T04:26:50.434Z,16.5
2018-06-15T04:27:15.915Z,16.5
2018-06-15T04:27:41.397Z,16.46
2018-06-15T04:28:50.080Z,16.42
2018-06-15T04:29:15.633Z,16.43
2018-06-15T04:29:41.141Z,16.49
2018-06-15T04:30:06.656Z,16.53
2018-06-15T04:30:32.127Z,16.47
2018-06-15T04:30:57.612Z,16.5
2018-06-15T04:31:23.108Z,16.5
2018-06-15T04:31:48.585Z,16.41
2018-06-15T04:32:14.081Z,16.42
2018-06-15T04:32:39.580Z,16.42
2018-06-15T04:33:05.044Z,16.41
2018-06-15T04:33:30.545Z,16.46
2018-06-15T04:33:56.024Z,16.53
2018-06-15T04:34:21.509Z,16.57
2018-06-15T04:34:47.018Z,16.6
2018-06-15T04:35:12.556Z,16.6
2018-06-15T04:35:38.013Z,16.56
2018-06-15T04:36:03.520Z,16.43
2018-06-15T04:36:29.001Z,16.54
2018-06-15T04:36:54.481Z,16.54
2018-06-15T04:37:19.976Z,16.58
2018-06-15T04:37:45.462Z,16.51
2018-06-15T04:38:10.964Z,16.56
2018-06-15T04:38:36.451Z,16.5
2018-06-15T04:39:01.940Z,16.58
2018-06-15T04:39:27.440Z,16.57
2018-06-15T04:39:52.940Z,16.54
2018-06-15T04:40:18.446Z,16.54
2018-06-15T04:40:43.953Z,16.58
2018-06-15T04:41:09.497Z,16.54
2018-06-15T04:41:34.966Z,16.61
2018-06-15T04:42:00.532Z,16.61
2018-06-15T04:42:25.990Z,16.61
2018-06-15T04:43:24.502Z,16.53
2018-06-15T04:43:50.029Z,16.56
2018-06-15T04:44:15.493Z,16.54
2018-06-15T04:44:41.361Z,16.65
2018-06-15T04:45:07.091Z,16.54
2018-06-15T04:45:32.696Z,16.61
2018-06-15T04:45:58.161Z,16.58
2018-06-15T04:46:23.609Z,16.58
2018-06-15T04:46:49.119Z,16.6
2018-06-15T04:47:14.612Z,16.66
2018-06-15T04:47:40.096Z,16.57
2018-06-15T04:48:05.588Z,16.65
2018-06-15T04:48:31.107Z,16.61
2018-06-15T04:48:56.562Z,16.66
2018-06-15T04:49:22.061Z,16.65
2018-06-15T04:49:47.560Z,16.68
2018-06-15T04:50:13.036Z,16.69
2018-06-15T04:50:38.526Z,16.71
2018-06-15T04:51:03.993Z,16.68
2018-06-15T04:51:29.469Z,16.71
2018-06-15T04:51:54.991Z,16.68
2018-06-15T04:52:20.471Z,16.71
2018-06-15T04:52:45.977Z,16.71
2018-06-15T04:53:11.472Z,16.74
2018-06-15T04:53:37.065Z,16.78
2018-06-15T04:54:02.488Z,16.87
2018-06-15T04:54:27.972Z,16.78
2018-06-15T04:54:53.471Z,16.79
2018-06-15T04:55:18.951Z,16.69
2018-06-15T04:55:44.460Z,16.74
2018-06-15T04:56:09.952Z,16.83
2018-06-15T04:56:35.442Z,16.78
2018-06-15T04:57:00.917Z,16.91
2018-06-15T04:57:26.375Z,16.84
2018-06-15T04:57:51.878Z,16.83
2018-06-15T04:58:17.375Z,16.91
2018-06-15T04:58:42.851Z,16.9
2018-06-15T04:59:08.359Z,16.89
2018-06-15T04:59:33.838Z,16.91
2018-06-15T04:59:59.421Z,16.89
2018-06-15T05:00:24.880Z,16.9
2018-06-15T05:00:50.395Z,16.97
2018-06-15T05:01:15.883Z,16.91
2018-06-15T05:01:41.429Z,16.97
2018-06-15T05:02:06.915Z,16.9
2018-06-15T05:02:32.385Z,16.96
2018-06-15T05:02:57.926Z,16.93
2018-06-15T05:03:23.465Z,17.01
2018-06-15T05:03:48.949Z,16.89
2018-06-15T05:04:14.428Z,16.97
2018-06-15T05:04:39.916Z,17.02
2018-06-15T05:05:05.443Z,16.94
2018-06-15T05:05:30.925Z,16.96
2018-06-15T05:05:56.411Z,16.93
2018-06-15T05:06:21.918Z,17.05
2018-06-15T05:06:47.376Z,16.96
2018-06-15T05:07:12.909Z,17.02
2018-06-15T05:07:38.349Z,17.02
2018-06-15T05:08:03.870Z,16.93
2018-06-15T05:08:29.366Z,16.96
2018-06-15T05:08:54.815Z,16.94
2018-06-15T05:09:20.407Z,17.01
2018-06-15T05:09:45.834Z,16.96
2018-06-15T05:10:11.337Z,17.02
2018-06-15T05:10:36.812Z,16.94
2018-06-15T05:11:02.299Z,17.05
2018-06-15T05:11:27.786Z,16.99
2018-06-15T05:11:53.242Z,16.97
2018-06-15T05:12:18.768Z,17.02
2018-06-15T05:13:22.397Z,17.05
2018-06-15T05:13:47.878Z,16.97
2018-06-15T05:14:13.369Z,16.94
2018-06-15T05:14:38.878Z,17.04
2018-06-15T05:15:04.373Z,17.01
2018-06-15T05:15:29.875Z,17.06
2018-06-15T05:15:55.394Z,17.05
2018-06-15T05:16:20.896Z,17.04
2018-06-15T05:16:46.396Z,16.97
2018-06-15T05:17:11.898Z,17.08
2018-06-15T05:17:37.330Z,17.06
2018-06-15T05:18:02.819Z,17.09
2018-06-15T05:18:28.302Z,17.09
2018-06-15T05:18:53.778Z,17.01
2018-06-15T05:19:19.247Z,17.05
2018-06-15T05:19:44.737Z,17.06
2018-06-15T05:20:10.235Z,17.06
2018-06-15T05:20:35.698Z,17.08
2018-06-15T05:21:01.164Z,17.14
2018-06-15T05:21:26.676Z,17.15
2018-06-15T05:21:52.170Z,17.14
2018-06-15T05:22:17.666Z,17.15
2018-06-15T05:22:43.193Z,17.09
2018-06-15T05:23:08.625Z,17.16
2018-06-15T05:23:34.128Z,17.15
2018-06-15T05:23:59.633Z,17.2
2018-06-15T05:24:25.150Z,17.15
2018-06-15T05:24:50.642Z,17.19
2018-06-15T05:25:16.109Z,17.11
2018-06-15T05:25:41.649Z,17.26
2018-06-15T05:26:07.090Z,17.26
2018-06-15T05:26:32.588Z,17.22
2018-06-15T05:26:58.077Z,17.23
2018-06-15T05:27:23.576Z,17.23
2018-06-15T05:27:49.053Z,17.27
2018-06-15T05:28:14.550Z,17.23
2018-06-15T05:28:40.060Z,17.26
2018-06-15T05:29:05.528Z,17.26
2018-06-15T05:29:31.023Z,17.29
2018-06-15T05:29:56.494Z,17.24
2018-06-15T05:30:21.988Z,17.24
2018-06-15T05:30:47.454Z,17.31
2018-06-15T05:31:12.937Z,17.33
2018-06-15T05:31:38.412Z,17.29
2018-06-15T05:32:03.890Z,17.33
2018-06-15T05:32:29.375Z,17.27
2018-06-15T05:32:54.886Z,17.26
2018-06-15T05:33:20.342Z,17.3
2018-06-15T05:33:45.828Z,17.34
2018-06-15T05:34:11.354Z,17.34
2018-06-15T05:34:36.814Z,17.38
2018-06-15T05:35:02.342Z,17.33
2018-06-15T05:35:27.831Z,17.33
2018-06-15T05:35:53.331Z,17.31
2018-06-15T05:36:18.787Z,17.34
2018-06-15T05:36:44.281Z,17.34
2018-06-15T05:37:09.773Z,17.36
2018-06-15T05:37:35.256Z,17.34
2018-06-15T05:38:00.753Z,17.36
2018-06-15T05:38:26.240Z,17.34
2018-06-15T05:38:51.744Z,17.34
2018-06-15T05:39:17.246Z,17.38
2018-06-15T05:39:42.760Z,17.33
2018-06-15T05:40:08.295Z,17.36
2018-06-15T05:40:33.710Z,17.34
2018-06-15T05:40:59.197Z,17.45
2018-06-15T05:41:24.661Z,17.42
2018-06-15T05:41:50.128Z,17.39
2018-06-15T05:42:15.552Z,17.42
2018-06-15T05:42:41.121Z,17.45
2018-06-15T05:43:06.564Z,17.45
2018-06-15T05:43:32.001Z,17.49
2018-06-15T05:43:57.484Z,17.49
2018-06-15T05:44:22.909Z,17.46
2018-06-15T05:44:48.394Z,17.49
2018-06-15T05:45:13.917Z,17.49
2018-06-15T05:45:39.330Z,17.57
2018-06-15T05:46:04.961Z,17.57
2018-06-15T05:46:30.392Z,17.59
2018-06-15T05:46:55.890Z,17.52
2018-06-15T05:47:21.382Z,17.63
2018-06-15T05:47:46.840Z,17.64
2018-06-15T05:48:12.315Z,17.64
2018-06-15T05:48:37.759Z,17.64
2018-06-15T05:49:03.213Z,17.71
2018-06-15T05:49:28.720Z,17.7
2018-06-15T05:49:54.206Z,17.67
2018-06-15T05:50:19.622Z,17.65
2018-06-15T05:50:45.140Z,17.7
2018-06-15T05:51:10.566Z,17.72
2018-06-15T05:51:36.033Z,17.68
2018-06-15T05:52:01.580Z,17.72
2018-06-15T05:52:26.981Z,17.74
2018-06-15T05:52:52.491Z,17.7
2018-06-15T05:53:17.983Z,17.72
2018-06-15T05:53:43.584Z,17.7
2018-06-15T05:54:09.048Z,17.7
2018-06-15T05:54:34.501Z,17.72
2018-06-15T05:54:59.954Z,17.7
2018-06-15T05:55:25.440Z,17.71
2018-06-15T05:55:50.870Z,17.68
2018-06-15T05:56:16.311Z,17.68
2018-06-15T05:56:41.801Z,17.74
2018-06-15T05:57:07.307Z,17.72
2018-06-15T05:57:32.800Z,17.7
2018-06-15T05:57:58.262Z,17.67
2018-06-15T05:58:23.682Z,17.67
2018-06-15T05:58:49.155Z,17.68
2018-06-15T05:59:14.627Z,17.7
2018-06-15T05:59:40.160Z,17.67
2018-06-15T06:00:05.647Z,17.7
2018-06-15T06:00:31.085Z,17.7
2018-06-15T06:00:56.512Z,17.7
2018-06-15T06:01:21.982Z,17.71
2018-06-15T06:01:47.456Z,17.67
2018-06-15T06:02:12.932Z,17.74
2018-06-15T06:02:38.433Z,17.72
2018-06-15T06:03:03.906Z,17.74
2018-06-15T06:03:29.381Z,17.72
2018-06-15T06:03:54.948Z,17.7
2018-06-15T06:04:20.382Z,17.74
2018-06-15T06:04:45.877Z,17.7
2018-06-15T06:05:11.316Z,17.7
2018-06-15T06:05:36.780Z,17.7
2018-06-15T06:06:02.286Z,17.68
2018-06-15T06:06:27.760Z,17.7
2018-06-15T06:06:53.218Z,17.74
2018-06-15T06:07:18.717Z,17.83
2018-06-15T06:07:44.171Z,17.79
2018-06-15T06:08:09.660Z,17.8
2018-06-15T06:08:35.180Z,17.83
2018-06-15T06:09:00.585Z,17.82
2018-06-15T06:09:26.081Z,17.82
2018-06-15T06:09:51.584Z,17.83
2018-06-15T06:10:17.046Z,17.83
2018-06-15T06:10:42.434Z,17.74
2018-06-15T06:11:07.993Z,17.8
2018-06-15T06:11:33.444Z,17.89
2018-06-15T06:11:59.013Z,17.83
2018-06-15T06:12:24.413Z,17.87
2018-06-15T06:12:49.865Z,17.85
2018-06-15T06:13:15.342Z,17.89
2018-06-15T06:13:40.792Z,17.8
2018-06-15T06:14:06.301Z,17.89
2018-06-15T06:14:31.792Z,17.9
2018-06-15T06:14:57.262Z,17.94
2018-06-15T06:15:22.767Z,17.94
2018-06-15T06:15:48.216Z,17.95
2018-06-15T06:16:13.698Z,17.98
2018-06-15T06:16:39.139Z,17.97
2018-06-15T06:17:04.667Z,18
2018-06-15T06:17:30.143Z,18.04
2018-06-15T06:17:55.617Z,18.08
2018-06-15T06:18:21.032Z,18.07
2018-06-15T06:18:46.528Z,18.07
2018-06-15T06:19:12.014Z,18.11
2018-06-15T06:19:37.485Z,18.13
2018-06-15T06:20:03.010Z,18.07
2018-06-15T06:20:28.386Z,18.13
2018-06-15T06:20:53.890Z,18.13
2018-06-15T06:21:19.384Z,18.13
2018-06-15T06:21:44.881Z,18.13
2018-06-15T06:22:10.307Z,18.08
2018-06-15T06:22:35.805Z,18.1
2018-06-15T06:23:01.273Z,18.13
2018-06-15T06:23:26.719Z,18.11
2018-06-15T06:23:52.212Z,18.08
2018-06-15T06:24:17.653Z,18.1
2018-06-15T06:24:43.120Z,18.07
2018-06-15T06:25:08.584Z,18.08
2018-06-15T06:25:34.041Z,18.08
2018-06-15T06:25:59.549Z,18.11
2018-06-15T06:26:24.965Z,18.11
2018-06-15T06:26:50.514Z,18.15
2018-06-15T06:27:15.961Z,18.23
2018-06-15T06:27:41.425Z,18.2
2018-06-15T06:28:06.916Z,18.38
2018-06-15T06:28:32.347Z,18.43
2018-06-15T06:28:57.845Z,18.6
2018-06-15T06:29:23.367Z,18.58
2018-06-15T06:29:48.835Z,18.7
2018-06-15T06:30:14.360Z,18.74
2018-06-15T06:30:39.859Z,18.81
2018-06-15T06:31:05.347Z,18.83
2018-06-15T06:31:30.873Z,18.93
2018-06-15T06:31:56.319Z,18.99
2018-06-15T06:32:21.820Z,19.02
2018-06-15T06:32:47.283Z,19.18
2018-06-15T06:33:12.733Z,19.19
2018-06-15T06:33:38.232Z,19.33
2018-06-15T06:34:03.703Z,19.31
2018-06-15T06:34:29.176Z,19.44
2018-06-15T06:34:54.615Z,19.36
2018-06-15T06:35:20.066Z,19.49
2018-06-15T06:35:45.525Z,19.58
2018-06-15T06:36:11.022Z,19.69
2018-06-15T06:36:36.523Z,19.73
2018-06-15T06:37:02.003Z,19.84
2018-06-15T06:37:27.447Z,19.89
2018-06-15T06:37:52.951Z,19.88
2018-06-15T06:38:18.411Z,19.99
2018-06-15T06:38:43.836Z,19.96
2018-06-15T06:39:09.279Z,20.06
2018-06-15T06:39:34.735Z,19.99
2018-06-15T06:40:00.289Z,20
2018-06-15T06:40:25.692Z,19.99
2018-06-15T06:40:51.248Z,19.99
2018-06-15T06:41:16.680Z,20
2018-06-15T06:41:42.140Z,19.99
2018-06-15T06:42:07.606Z,19.96
2018-06-15T06:42:33.118Z,19.99
2018-06-15T06:42:58.579Z,20
2018-06-15T06:43:24.055Z,19.92
2018-06-15T06:43:49.563Z,19.92
2018-06-15T06:44:15.072Z,19.94
2018-06-15T06:44:40.547Z,19.95
2018-06-15T06:45:06.041Z,19.92
2018-06-15T06:45:31.526Z,19.91
2018-06-15T06:45:57.007Z,19.95
2018-06-15T06:46:22.503Z,19.94
2018-06-15T06:46:48.006Z,19.92
2018-06-15T06:47:13.541Z,19.92
2018-06-15T06:47:39.066Z,19.92
2018-06-15T06:48:04.520Z,20
2018-06-15T06:48:30.075Z,20
2018-06-15T06:48:55.561Z,20.03
2018-06-15T06:49:21.064Z,20.11
2018-06-15T06:49:46.578Z,20.13
2018-06-15T06:50:12.079Z,20.1
2018-06-15T06:50:37.613Z,20.13
2018-06-15T06:51:03.053Z,20.11
2018-06-15T06:51:28.544Z,20.07
2018-06-15T06:51:54.052Z,20.09
2018-06-15T06:52:19.519Z,20.02
2018-06-15T06:52:45.069Z,20.11
2018-06-15T06:53:10.531Z,20.04
2018-06-15T06:53:36.001Z,20
2018-06-15T06:54:01.466Z,19.96
2018-06-15T06:54:26.966Z,19.99
2018-06-15T06:54:52.504Z,20
2018-06-15T06:55:18.010Z,19.94
2018-06-15T06:55:43.459Z,19.86
2018-06-15T06:56:08.950Z,19.86
2018-06-15T06:56:34.440Z,19.82
2018-06-15T06:56:59.874Z,19.79
2018-06-15T06:57:25.401Z,19.67
2018-06-15T06:57:50.871Z,19.67
2018-06-15T06:58:16.379Z,19.63
2018-06-15T06:58:41.815Z,19.66
2018-06-15T06:59:07.332Z,19.64
2018-06-15T06:59:32.989Z,19.69
2018-06-15T06:59:58.799Z,19.55
2018-06-15T07:00:24.351Z,19.51
2018-06-15T07:00:50.014Z,19.41
2018-06-15T07:01:15.354Z,19.51
2018-06-15T07:01:40.795Z,19.33
2018-06-15T07:02:06.287Z,19.45
2018-06-15T07:02:31.755Z,19.34
2018-06-15T07:02:57.577Z,19.4
2018-06-15T07:03:22.770Z,19.36
2018-06-15T07:03:48.249Z,19.29
2018-06-15T07:04:13.712Z,19.29
2018-06-15T07:04:39.157Z,19.33
2018-06-15T07:05:04.613Z,19.29
2018-06-15T07:05:30.102Z,19.21
2018-06-15T07:05:55.542Z,19.12
2018-06-15T07:06:21.060Z,19.19
2018-06-15T07:06:46.496Z,19.14
2018-06-15T07:07:11.978Z,19.15
2018-06-15T07:07:37.440Z,19.11
2018-06-15T07:08:02.894Z,19.11
2018-06-15T07:08:28.398Z,19.07
2018-06-15T07:08:53.815Z,19
2018-06-15T07:09:19.298Z,19.07
2018-06-15T07:09:44.819Z,18.99
2018-06-15T07:10:10.385Z,19.02
2018-06-15T07:10:35.849Z,19.02
2018-06-15T07:11:01.326Z,18.92
2018-06-15T07:11:26.827Z,18.89
2018-06-15T07:11:52.326Z,19.04
2018-06-15T07:12:17.859Z,19
2018-06-15T07:12:43.314Z,18.96
2018-06-15T07:13:08.893Z,18.96
2018-06-15T07:13:34.381Z,19
2018-06-15T07:14:00.034Z,18.89
2018-06-15T07:14:25.410Z,18.95
2018-06-15T07:14:50.904Z,18.86
2018-06-15T07:15:16.319Z,18.95
2018-06-15T07:15:41.844Z,18.93
2018-06-15T07:16:07.446Z,18.98
2018-06-15T07:16:32.887Z,18.92
2018-06-15T07:16:58.320Z,18.92
2018-06-15T07:17:23.796Z,18.89
2018-06-15T07:17:49.280Z,19
2018-06-15T07:18:14.746Z,18.9
2018-06-15T07:18:40.237Z,19.08
2018-06-15T07:19:05.676Z,18.95
2018-06-15T07:19:31.183Z,18.98
2018-06-15T07:19:56.688Z,18.83
2018-06-15T07:20:22.177Z,18.83
2018-06-15T07:20:47.752Z,18.83
2018-06-15T07:21:13.242Z,18.8
2018-06-15T07:21:38.751Z,18.89
2018-06-15T07:22:04.191Z,18.88
2018-06-15T07:22:29.691Z,18.86
2018-06-15T07:22:55.132Z,18.88
2018-06-15T07:23:20.563Z,18.75
2018-06-15T07:23:46.032Z,18.78
2018-06-15T07:24:11.554Z,18.71
2018-06-15T07:24:36.974Z,18.77
2018-06-15T07:25:02.437Z,18.74
2018-06-15T07:25:27.904Z,18.75
2018-06-15T07:25:53.387Z,18.74
2018-06-15T07:26:18.882Z,18.75
2018-06-15T07:26:44.362Z,18.74
2018-06-15T07:27:09.796Z,18.78
2018-06-15T07:27:35.325Z,18.73
2018-06-15T07:28:00.778Z,18.74
2018-06-15T07:28:26.255Z,18.74
2018-06-15T07:28:51.704Z,18.65
2018-06-15T07:29:17.233Z,18.8
2018-06-15T07:29:42.681Z,18.74
2018-06-15T07:30:08.100Z,18.73
2018-06-15T07:30:33.620Z,18.74
2018-06-15T07:30:59.098Z,18.65
2018-06-15T07:31:24.521Z,18.7
2018-06-15T07:31:50.068Z,18.71
2018-06-15T07:32:15.495Z,18.65
2018-06-15T07:32:41.021Z,18.66
2018-06-15T07:33:06.502Z,18.77
2018-06-15T07:33:32.021Z,18.77
2018-06-15T07:33:57.420Z,18.73
2018-06-15T07:34:22.934Z,18.68
2018-06-15T07:34:48.367Z,18.7
2018-06-15T07:35:13.886Z,18.65
2018-06-15T07:35:39.319Z,18.66
2018-06-15T07:36:04.817Z,18.62
2018-06-15T07:36:30.345Z,18.68
2018-06-15T07:36:55.772Z,18.59
2018-06-15T07:37:21.243Z,18.66
2018-06-15T07:37:46.746Z,18.62
2018-06-15T07:38:12.242Z,18.58
2018-06-15T07:38:37.729Z,18.62
2018-06-15T07:39:03.148Z,18.63
2018-06-15T07:39:28.635Z,18.6
2018-06-15T07:39:54.144Z,18.6
2018-06-15T07:40:19.645Z,18.65
2018-06-15T07:40:45.101Z,18.6
2018-06-15T07:41:10.550Z,18.66
2018-06-15T07:41:36.016Z,18.68
2018-06-15T07:42:01.489Z,18.62
2018-06-15T07:42:26.993Z,18.71
2018-06-15T07:42:52.427Z,18.63
2018-06-15T07:43:17.913Z,18.66
2018-06-15T07:43:43.381Z,18.63
2018-06-15T07:44:08.895Z,18.66
2018-06-15T07:44:34.355Z,18.6
2018-06-15T07:44:59.828Z,18.63
2018-06-15T07:45:25.300Z,18.63
2018-06-15T07:45:50.799Z,18.56
2018-06-15T07:46:16.290Z,18.55
2018-06-15T07:46:41.831Z,18.59
2018-06-15T07:47:07.272Z,18.55
2018-06-15T07:47:32.852Z,18.55
2018-06-15T07:47:58.314Z,18.63
2018-06-15T07:48:23.759Z,18.55
2018-06-15T07:48:49.322Z,18.58
2018-06-15T07:49:14.696Z,18.58
2018-06-15T07:49:40.200Z,18.5
2018-06-15T07:50:05.670Z,18.58
2018-06-15T07:50:31.154Z,18.55
2018-06-15T07:50:56.715Z,18.56
2018-06-15T07:51:22.083Z,18.62
2018-06-15T07:51:47.535Z,18.53
2018-06-15T07:52:13.008Z,18.59
2018-06-15T07:52:38.491Z,18.5
2018-06-15T07:53:03.930Z,18.55
2018-06-15T07:53:29.441Z,18.62
2018-06-15T07:53:54.945Z,18.58
2018-06-15T07:54:20.346Z,18.49
2018-06-15T07:54:45.832Z,18.49
2018-06-15T07:55:11.328Z,18.55
2018-06-15T07:55:36.810Z,18.5
2018-06-15T07:56:02.246Z,18.6
2018-06-15T07:56:27.715Z,18.55
2018-06-15T07:56:53.160Z,18.55
2018-06-15T07:57:18.903Z,18.5
2018-06-15T07:57:44.344Z,18.5
2018-06-15T07:58:09.886Z,18.49
2018-06-15T07:58:35.319Z,18.56
2018-06-15T07:59:00.779Z,18.63
2018-06-15T07:59:26.272Z,18.58
2018-06-15T07:59:51.737Z,18.5
2018-06-15T08:00:17.188Z,18.49
2018-06-15T08:00:42.694Z,18.53
2018-06-15T08:01:08.202Z,18.58
2018-06-15T08:01:33.684Z,18.59
2018-06-15T08:01:59.131Z,18.62
2018-06-15T08:02:24.681Z,18.7
2018-06-15T08:02:50.107Z,18.71
2018-06-15T08:03:15.649Z,18.86
2018-06-15T08:03:41.145Z,18.95
2018-06-15T08:04:06.580Z,18.98
2018-06-15T08:04:32.083Z,19
2018-06-15T08:04:57.584Z,19.14
2018-06-15T08:05:23.087Z,19.18
2018-06-15T08:05:48.519Z,19.26
2018-06-15T08:06:14.006Z,19.44
2018-06-15T08:06:39.466Z,19.36
2018-06-15T08:07:04.970Z,19.54
2018-06-15T08:07:30.460Z,19.64
2018-06-15T08:07:55.902Z,19.69
2018-06-15T08:08:21.448Z,19.67
2018-06-15T08:08:46.850Z,19.84
2018-06-15T08:09:12.342Z,19.94
2018-06-15T08:09:37.828Z,19.99
2018-06-15T08:10:03.281Z,20.04
2018-06-15T08:10:28.825Z,20.11
2018-06-15T08:10:54.314Z,20.18
2018-06-15T08:11:19.745Z,20.22
2018-06-15T08:11:45.232Z,20.26
2018-06-15T08:12:10.717Z,20.28
2018-06-15T08:12:36.212Z,20.43
2018-06-15T08:13:01.737Z,20.4
2018-06-15T08:13:27.149Z,20.5
2018-06-15T08:13:52.560Z,20.52
2018-06-15T08:14:18.093Z,20.58
2018-06-15T08:14:43.527Z,20.6
2018-06-15T08:15:09.070Z,20.69
2018-06-15T08:15:34.542Z,20.72
2018-06-15T08:16:00.015Z,20.77
2018-06-15T08:16:25.454Z,20.85
2018-06-15T08:16:51.012Z,20.9
2018-06-15T08:17:16.481Z,20.82
2018-06-15T08:17:41.973Z,20.88
2018-06-15T08:18:07.424Z,20.84
2018-06-15T08:18:32.882Z,20.81
2018-06-15T08:18:58.367Z,20.99
2018-06-15T08:19:23.872Z,20.99
2018-06-15T08:19:49.319Z,21.12
2018-06-15T08:20:14.883Z,21.21
2018-06-15T08:20:40.289Z,21.25
2018-06-15T08:21:05.786Z,21.36
2018-06-15T08:21:31.283Z,21.37
2018-06-15T08:21:56.833Z,21.48
2018-06-15T08:22:22.346Z,21.51
2018-06-15T08:22:47.837Z,21.55
2018-06-15T08:23:13.476Z,21.6
2018-06-15T08:23:38.935Z,21.66
2018-06-15T08:24:04.424Z,21.67
2018-06-15T08:24:29.953Z,21.75
2018-06-15T08:24:55.431Z,21.79
2018-06-15T08:25:20.933Z,21.83
2018-06-15T08:25:46.431Z,21.99
2018-06-15T08:26:11.955Z,21.98
2018-06-15T08:26:37.478Z,22.07
2018-06-15T08:27:02.984Z,22.1
2018-06-15T08:27:28.473Z,22.11
2018-06-15T08:27:53.953Z,22.15
2018-06-15T08:28:19.437Z,22.2
2018-06-15T08:28:44.938Z,22.23
2018-06-15T08:29:10.468Z,22.17
2018-06-15T08:29:35.968Z,22.15
2018-06-15T08:30:01.480Z,22.1
2018-06-15T08:30:26.939Z,22.02
2018-06-15T08:30:52.492Z,22.13
2018-06-15T08:31:45.890Z,21.96
2018-06-15T08:32:11.473Z,22
2018-06-15T08:32:36.982Z,21.95
2018-06-15T08:33:02.465Z,22.07
2018-06-15T08:33:27.976Z,21.96
2018-06-15T08:33:53.454Z,21.99
2018-06-15T08:34:18.906Z,21.98
2018-06-15T08:35:07.194Z,22.04
2018-06-15T08:35:32.669Z,21.98
2018-06-15T08:35:58.174Z,22
2018-06-15T08:36:23.657Z,22.06
2018-06-15T08:36:49.150Z,22
2018-06-15T08:37:14.706Z,22.04
2018-06-15T08:37:40.199Z,22.1
2018-06-15T08:38:05.706Z,22.14
2018-06-15T08:38:31.179Z,22.13
2018-06-15T08:38:56.653Z,22.02
2018-06-15T08:39:22.129Z,22.18
2018-06-15T08:39:47.586Z,22.1
2018-06-15T08:40:13.076Z,22.15
2018-06-15T08:40:38.608Z,22.07
2018-06-15T08:41:04.126Z,22.2
2018-06-15T08:41:29.637Z,22.18
2018-06-15T08:41:55.124Z,22.11
2018-06-15T08:42:20.675Z,22.07
2018-06-15T08:42:46.082Z,22.1
2018-06-15T08:43:11.585Z,22.14
2018-06-15T08:43:37.080Z,22.17
2018-06-15T08:44:02.572Z,22.14
2018-06-15T08:44:28.033Z,22.1
2018-06-15T08:44:53.533Z,22.1
2018-06-15T08:45:19.071Z,22.07
2018-06-15T08:45:44.545Z,22.15
2018-06-15T08:46:10.025Z,22.08
2018-06-15T08:46:35.546Z,22.11
2018-06-15T08:47:01.049Z,22.18
2018-06-15T08:47:26.524Z,22.07
2018-06-15T08:47:52.030Z,22.22
2018-06-15T08:48:17.517Z,22.22
2018-06-15T08:48:43.006Z,22.22
2018-06-15T08:49:08.502Z,22.23
2018-06-15T08:49:34.002Z,22.23
2018-06-15T08:49:59.517Z,22.2
2018-06-15T08:50:24.989Z,22.23
2018-06-15T08:50:50.495Z,22.23
2018-06-15T08:51:16.002Z,22.25
2018-06-15T08:52:05.076Z,22.29
2018-06-15T08:52:30.595Z,22.35
2018-06-15T08:52:56.089Z,22.18
2018-06-15T08:53:21.555Z,22.23
2018-06-15T08:53:47.055Z,22.25
2018-06-15T08:54:12.527Z,22.23
2018-06-15T08:55:11.029Z,22.29
2018-06-15T08:55:36.517Z,22.18
2018-06-15T08:56:02.020Z,22.14
2018-06-15T08:56:27.522Z,22.13
2018-06-15T08:56:53.002Z,22.2
2018-06-15T08:57:18.506Z,22.17
2018-06-15T08:57:43.995Z,22.17
2018-06-15T08:58:09.490Z,22.11
2018-06-15T08:58:34.959Z,22.2
2018-06-15T08:59:00.468Z,22.23
2018-06-15T08:59:26.012Z,22.22
2018-06-15T08:59:51.483Z,22.15
2018-06-15T09:00:16.982Z,22.15
2018-06-15T09:00:42.460Z,22.06
2018-06-15T09:01:07.961Z,22.11
2018-06-15T09:01:33.469Z,22.04
2018-06-15T09:01:58.963Z,22.04
2018-06-15T09:02:24.457Z,22.11
2018-06-15T09:03:28.056Z,22.1
2018-06-15T09:03:53.564Z,22.11
2018-06-15T09:04:19.041Z,22.07
2018-06-15T09:04:44.559Z,22
2018-06-15T09:05:10.041Z,22.02
2018-06-15T09:05:35.555Z,21.93
2018-06-15T09:06:01.056Z,22.04
2018-06-15T09:06:26.550Z,22.02
2018-06-15T09:06:52.040Z,22
2018-06-15T09:07:17.619Z,21.93
2018-06-15T09:07:43.090Z,21.98
2018-06-15T09:08:08.557Z,21.93
2018-06-15T09:08:34.036Z,21.95
2018-06-15T09:08:59.514Z,21.93
2018-06-15T09:09:25.031Z,21.88
2018-06-15T09:09:50.524Z,21.83
2018-06-15T09:10:16.022Z,21.79
2018-06-15T09:10:41.498Z,21.95
2018-06-15T09:11:06.998Z,21.95
2018-06-15T09:11:32.467Z,21.93
2018-06-15T09:11:57.960Z,21.98
2018-06-15T09:12:23.493Z,22.04
2018-06-15T09:12:48.911Z,22.14
2018-06-15T09:13:14.440Z,22.11
2018-06-15T09:13:39.866Z,22.13
2018-06-15T09:14:05.356Z,22.1
2018-06-15T09:14:30.809Z,22.15
2018-06-15T09:14:56.268Z,22.22
2018-06-15T09:15:21.757Z,22.29
2018-06-15T09:15:47.172Z,22.28
2018-06-15T09:16:12.668Z,22.38
2018-06-15T09:16:38.174Z,22.3
2018-06-15T09:17:03.704Z,22.3
2018-06-15T09:17:29.177Z,22.29
2018-06-15T09:17:54.650Z,22.23
2018-06-15T09:18:20.140Z,22.2
2018-06-15T09:18:45.568Z,22.15
2018-06-15T09:19:11.065Z,22
2018-06-15T09:19:36.603Z,22.1
2018-06-15T09:20:02.100Z,22.1
2018-06-15T09:20:27.604Z,21.96
2018-06-15T09:20:53.151Z,21.92
2018-06-15T09:21:18.649Z,22.07
2018-06-15T09:21:44.135Z,21.96
2018-06-15T09:22:09.648Z,21.96
2018-06-15T09:22:35.151Z,21.96
2018-06-15T09:23:00.663Z,21.88
2018-06-15T09:24:09.415Z,21.89
2018-06-15T09:24:34.901Z,21.95
2018-06-15T09:25:00.410Z,21.95
2018-06-15T09:25:25.906Z,21.82
2018-06-15T09:25:51.407Z,21.95
2018-06-15T09:26:16.945Z,21.82
2018-06-15T09:26:42.444Z,21.92
2018-06-15T09:27:08.165Z,21.82
2018-06-15T09:27:33.849Z,21.82
2018-06-15T09:27:59.347Z,21.76
2018-06-15T09:28:24.842Z,21.85
2018-06-15T09:28:50.350Z,21.82
2018-06-15T09:29:15.911Z,21.75
2018-06-15T09:29:41.421Z,21.66
2018-06-15T09:30:06.915Z,21.69
2018-06-15T09:30:32.382Z,21.7
2018-06-15T09:30:57.870Z,21.69
2018-06-15T09:31:23.342Z,21.8
2018-06-15T09:31:48.850Z,21.76
2018-06-15T09:32:14.323Z,21.85
2018-06-15T09:32:39.829Z,21.82
2018-06-15T09:33:05.348Z,21.77
2018-06-15T09:33:30.835Z,21.88
2018-06-15T09:33:56.345Z,21.88
2018-06-15T09:34:21.839Z,21.82
2018-06-15T09:34:47.345Z,21.82
2018-06-15T09:35:12.835Z,21.93
2018-06-15T09:35:38.327Z,21.95
2018-06-15T09:36:03.800Z,22
2018-06-15T09:36:29.299Z,22.04
2018-06-15T09:36:54.766Z,22.13
2018-06-15T09:37:20.260Z,22.11
2018-06-15T09:37:45.738Z,22.14
2018-06-15T09:38:11.279Z,22.18
2018-06-15T09:38:36.783Z,22.14
2018-06-15T09:39:02.358Z,22.2
2018-06-15T09:39:27.827Z,22.2
2018-06-15T09:39:53.294Z,22.25
2018-06-15T09:40:18.794Z,22.17
2018-06-15T09:40:44.303Z,22.23
2018-06-15T09:41:09.771Z,22.2
2018-06-15T09:41:35.271Z,22.26
2018-06-15T09:42:00.797Z,22.29
2018-06-15T09:42:26.297Z,22.3
2018-06-15T09:42:51.834Z,22.32
2018-06-15T09:43:17.366Z,22.45
2018-06-15T09:43:42.873Z,22.45
2018-06-15T09:44:08.371Z,22.35
2018-06-15T09:44:33.848Z,22.41
2018-06-15T09:44:59.341Z,22.43
2018-06-15T09:45:24.825Z,22.47
2018-06-15T09:45:50.331Z,22.35